sensor_id;sensor_type;location;lat;lon;timestamp;P1;durP1;ratioP1;P2;durP2;ratioP2
59074;SDS011;44860;53.020;6.738;2023-04-24T00:00:08;1.52;;;1.20;;
59074;SDS011;44860;53.020;6.738;2023-04-24T00:02:34;1.55;;;1.10;;
59074;SDS011;44860;53.020;6.738;2023-04-24T00:05:03;1.10;;;1.00;;
59074;SDS011;44860;53.020;6.738;2023-04-24T00:07:29;1.63;;;1.00;;
59074;SDS011;44860;53.020;6.738;2023-04-24T00:09:55;1.05;;;1.02;;
59074;SDS011;44860;53.020;6.738;2023-04-24T00:12:21;2.75;;;0.98;;
59074;SDS011;44860;53.020;6.738;2023-04-24T00:14:46;1.13;;;0.95;;
59074;SDS011;44860;53.020;6.738;2023-04-24T00:17:12;1.83;;;1.10;;
59074;SDS011;44860;53.020;6.738;2023-04-24T00:19:38;1.35;;;1.13;;
59074;SDS011;44860;53.020;6.738;2023-04-24T00:22:04;1.52;;;1.40;;
59074;SDS011;44860;53.020;6.738;2023-04-24T00:24:30;1.40;;;1.30;;
59074;SDS011;44860;53.020;6.738;2023-04-24T00:26:56;1.50;;;1.40;;
59074;SDS011;44860;53.020;6.738;2023-04-24T00:29:22;1.40;;;1.30;;
59074;SDS011;44860;53.020;6.738;2023-04-24T00:31:47;1.40;;;1.30;;
59074;SDS011;44860;53.020;6.738;2023-04-24T00:34:13;1.73;;;1.25;;
59074;SDS011;44860;53.020;6.738;2023-04-24T00:36:39;1.60;;;1.50;;
59074;SDS011;44860;53.020;6.738;2023-04-24T00:39:05;1.35;;;1.25;;
59074;SDS011;44860;53.020;6.738;2023-04-24T00:41:33;1.33;;;1.23;;
59074;SDS011;44860;53.020;6.738;2023-04-24T00:44:00;1.40;;;1.30;;
59074;SDS011;44860;53.020;6.738;2023-04-24T00:46:25;1.55;;;1.45;;
59074;SDS011;44860;53.020;6.738;2023-04-24T00:48:51;1.70;;;1.60;;
59074;SDS011;44860;53.020;6.738;2023-04-24T00:51:17;2.00;;;1.33;;
59074;SDS011;44860;53.020;6.738;2023-04-24T00:53:43;1.80;;;1.70;;
59074;SDS011;44860;53.020;6.738;2023-04-24T00:56:09;1.60;;;1.50;;
59074;SDS011;44860;53.020;6.738;2023-04-24T00:58:35;1.50;;;1.40;;
59074;SDS011;44860;53.020;6.738;2023-04-24T01:01:01;1.40;;;1.30;;
59074;SDS011;44860;53.020;6.738;2023-04-24T01:03:29;1.70;;;1.60;;
59074;SDS011;44860;53.020;6.738;2023-04-24T01:05:56;1.67;;;1.58;;
59074;SDS011;44860;53.020;6.738;2023-04-24T01:08:23;1.58;;;1.48;;
59074;SDS011;44860;53.020;6.738;2023-04-24T01:10:51;1.70;;;1.60;;
59074;SDS011;44860;53.020;6.738;2023-04-24T01:13:18;1.77;;;1.67;;
59074;SDS011;44860;53.020;6.738;2023-04-24T01:15:44;1.80;;;1.70;;
59074;SDS011;44860;53.020;6.738;2023-04-24T01:18:10;2.35;;;2.00;;
59074;SDS011;44860;53.020;6.738;2023-04-24T01:20:36;2.10;;;2.00;;
59074;SDS011;44860;53.020;6.738;2023-04-24T01:23:05;2.28;;;2.17;;
59074;SDS011;44860;53.020;6.738;2023-04-24T01:25:31;2.38;;;2.28;;
59074;SDS011;44860;53.020;6.738;2023-04-24T01:27:57;2.58;;;2.38;;
59074;SDS011;44860;53.020;6.738;2023-04-24T01:30:23;2.85;;;2.65;;
59074;SDS011;44860;53.020;6.738;2023-04-24T01:32:50;3.38;;;2.90;;
59074;SDS011;44860;53.020;6.738;2023-04-24T01:35:16;3.97;;;3.10;;
59074;SDS011;44860;53.020;6.738;2023-04-24T01:37:42;3.70;;;3.40;;
59074;SDS011;44860;53.020;6.738;2023-04-24T01:40:08;4.13;;;3.50;;
59074;SDS011;44860;53.020;6.738;2023-04-24T01:42:34;4.15;;;3.65;;
59074;SDS011;44860;53.020;6.738;2023-04-24T01:45:00;4.50;;;4.10;;
59074;SDS011;44860;53.020;6.738;2023-04-24T01:47:28;4.93;;;4.43;;
59074;SDS011;44860;53.020;6.738;2023-04-24T01:49:55;5.18;;;4.75;;
59074;SDS011;44860;53.020;6.738;2023-04-24T01:52:21;5.05;;;4.57;;
59074;SDS011;44860;53.020;6.738;2023-04-24T01:54:50;4.95;;;4.55;;
59074;SDS011;44860;53.020;6.738;2023-04-24T01:57:17;5.25;;;4.78;;
59074;SDS011;44860;53.020;6.738;2023-04-24T01:59:42;5.13;;;4.55;;
59074;SDS011;44860;53.020;6.738;2023-04-24T02:02:08;5.57;;;5.00;;
59074;SDS011;44860;53.020;6.738;2023-04-24T02:04:34;5.68;;;5.18;;
59074;SDS011;44860;53.020;6.738;2023-04-24T02:06:59;6.20;;;5.68;;
59074;SDS011;44860;53.020;6.738;2023-04-24T02:09:25;5.75;;;5.20;;
59074;SDS011;44860;53.020;6.738;2023-04-24T02:11:51;7.47;;;5.82;;
59074;SDS011;44860;53.020;6.738;2023-04-24T02:14:16;7.05;;;6.35;;
59074;SDS011;44860;53.020;6.738;2023-04-24T02:16:42;6.60;;;5.95;;
59074;SDS011;44860;53.020;6.738;2023-04-24T02:19:09;6.63;;;6.03;;
59074;SDS011;44860;53.020;6.738;2023-04-24T02:21:35;6.78;;;6.18;;
59074;SDS011;44860;53.020;6.738;2023-04-24T02:24:00;7.82;;;7.13;;
59074;SDS011;44860;53.020;6.738;2023-04-24T02:26:26;7.22;;;6.63;;
59074;SDS011;44860;53.020;6.738;2023-04-24T02:28:52;7.70;;;7.07;;
59074;SDS011;44860;53.020;6.738;2023-04-24T02:31:17;7.60;;;7.00;;
59074;SDS011;44860;53.020;6.738;2023-04-24T02:33:43;8.02;;;7.32;;
59074;SDS011;44860;53.020;6.738;2023-04-24T02:36:09;8.35;;;7.50;;
59074;SDS011;44860;53.020;6.738;2023-04-24T02:38:35;7.90;;;7.30;;
59074;SDS011;44860;53.020;6.738;2023-04-24T02:41:00;8.48;;;7.78;;
59074;SDS011;44860;53.020;6.738;2023-04-24T02:43:27;7.95;;;7.35;;
59074;SDS011;44860;53.020;6.738;2023-04-24T02:45:53;7.78;;;7.07;;
59074;SDS011;44860;53.020;6.738;2023-04-24T02:48:18;7.80;;;7.03;;
59074;SDS011;44860;53.020;6.738;2023-04-24T02:50:46;7.63;;;6.90;;
59074;SDS011;44860;53.020;6.738;2023-04-24T02:53:11;7.50;;;6.80;;
59074;SDS011;44860;53.020;6.738;2023-04-24T02:55:37;7.75;;;7.05;;
59074;SDS011;44860;53.020;6.738;2023-04-24T02:58:03;6.68;;;6.07;;
59074;SDS011;44860;53.020;6.738;2023-04-24T03:00:28;6.65;;;6.05;;
59074;SDS011;44860;53.020;6.738;2023-04-24T03:02:54;7.47;;;6.78;;
59074;SDS011;44860;53.020;6.738;2023-04-24T03:05:20;6.38;;;5.78;;
59074;SDS011;44860;53.020;6.738;2023-04-24T03:07:46;6.60;;;6.00;;
59074;SDS011;44860;53.020;6.738;2023-04-24T03:10:12;6.88;;;6.18;;
59074;SDS011;44860;53.020;6.738;2023-04-24T03:12:37;6.47;;;5.97;;
59074;SDS011;44860;53.020;6.738;2023-04-24T03:15:03;6.20;;;5.60;;
59074;SDS011;44860;53.020;6.738;2023-04-24T03:17:29;7.05;;;6.45;;
59074;SDS011;44860;53.020;6.738;2023-04-24T03:19:55;6.90;;;6.30;;
59074;SDS011;44860;53.020;6.738;2023-04-24T03:22:21;7.05;;;6.45;;
59074;SDS011;44860;53.020;6.738;2023-04-24T03:24:46;6.88;;;6.10;;
59074;SDS011;44860;53.020;6.738;2023-04-24T03:27:12;6.43;;;5.82;;
59074;SDS011;44860;53.020;6.738;2023-04-24T03:29:37;7.45;;;5.90;;
59074;SDS011;44860;53.020;6.738;2023-04-24T03:32:03;6.57;;;5.95;;
59074;SDS011;44860;53.020;6.738;2023-04-24T03:34:29;6.30;;;5.70;;
59074;SDS011;44860;53.020;6.738;2023-04-24T03:36:54;5.97;;;5.47;;
59074;SDS011;44860;53.020;6.738;2023-04-24T03:39:20;6.30;;;5.65;;
59074;SDS011;44860;53.020;6.738;2023-04-24T03:41:46;7.15;;;6.05;;
59074;SDS011;44860;53.020;6.738;2023-04-24T03:44:11;6.80;;;6.13;;
59074;SDS011;44860;53.020;6.738;2023-04-24T03:46:37;6.97;;;6.28;;
59074;SDS011;44860;53.020;6.738;2023-04-24T03:49:02;7.30;;;6.60;;
59074;SDS011;44860;53.020;6.738;2023-04-24T03:51:28;7.50;;;6.53;;
59074;SDS011;44860;53.020;6.738;2023-04-24T03:53:55;7.80;;;7.10;;
59074;SDS011;44860;53.020;6.738;2023-04-24T03:56:20;7.82;;;7.03;;
59074;SDS011;44860;53.020;6.738;2023-04-24T03:58:46;8.00;;;7.30;;
59074;SDS011;44860;53.020;6.738;2023-04-24T04:01:12;7.72;;;7.05;;
59074;SDS011;44860;53.020;6.738;2023-04-24T04:03:38;8.65;;;7.57;;
59074;SDS011;44860;53.020;6.738;2023-04-24T04:06:03;9.02;;;8.23;;
59074;SDS011;44860;53.020;6.738;2023-04-24T04:08:29;8.68;;;7.88;;
59074;SDS011;44860;53.020;6.738;2023-04-24T04:10:55;9.00;;;8.20;;
59074;SDS011;44860;53.020;6.738;2023-04-24T04:13:21;9.32;;;8.43;;
59074;SDS011;44860;53.020;6.738;2023-04-24T04:15:46;8.80;;;7.90;;
59074;SDS011;44860;53.020;6.738;2023-04-24T04:18:12;8.95;;;8.02;;
59074;SDS011;44860;53.020;6.738;2023-04-24T04:20:38;7.88;;;7.18;;
59074;SDS011;44860;53.020;6.738;2023-04-24T04:23:03;8.27;;;7.55;;
59074;SDS011;44860;53.020;6.738;2023-04-24T04:25:29;7.85;;;7.05;;
59074;SDS011;44860;53.020;6.738;2023-04-24T04:27:54;7.72;;;7.03;;
59074;SDS011;44860;53.020;6.738;2023-04-24T04:30:20;7.10;;;6.40;;
59074;SDS011;44860;53.020;6.738;2023-04-24T04:32:46;6.82;;;5.80;;
59074;SDS011;44860;53.020;6.738;2023-04-24T04:35:12;5.95;;;5.20;;
59074;SDS011;44860;53.020;6.738;2023-04-24T04:37:38;5.63;;;5.13;;
59074;SDS011;44860;53.020;6.738;2023-04-24T04:40:05;5.88;;;5.30;;
59074;SDS011;44860;53.020;6.738;2023-04-24T04:42:31;5.10;;;4.60;;
59074;SDS011;44860;53.020;6.738;2023-04-24T04:45:01;5.70;;;4.68;;
59074;SDS011;44860;53.020;6.738;2023-04-24T04:47:27;4.80;;;4.40;;
59074;SDS011;44860;53.020;6.738;2023-04-24T04:49:53;5.13;;;4.25;;
59074;SDS011;44860;53.020;6.738;2023-04-24T04:52:19;4.55;;;4.00;;
59074;SDS011;44860;53.020;6.738;2023-04-24T04:54:45;4.07;;;3.67;;
59074;SDS011;44860;53.020;6.738;2023-04-24T04:57:11;3.88;;;3.38;;
59074;SDS011;44860;53.020;6.738;2023-04-24T04:59:37;3.70;;;2.88;;
59074;SDS011;44860;53.020;6.738;2023-04-24T05:02:03;3.17;;;2.33;;
59074;SDS011;44860;53.020;6.738;2023-04-24T05:04:29;2.30;;;2.10;;
59074;SDS011;44860;53.020;6.738;2023-04-24T05:06:55;2.00;;;1.90;;
59074;SDS011;44860;53.020;6.738;2023-04-24T05:09:21;1.95;;;1.77;;
59074;SDS011;44860;53.020;6.738;2023-04-24T05:11:47;6.88;;;5.10;;
59074;SDS011;44860;53.020;6.738;2023-04-24T05:14:12;4.13;;;3.60;;
59074;SDS011;44860;53.020;6.738;2023-04-24T05:16:39;5.18;;;4.68;;
59074;SDS011;44860;53.020;6.738;2023-04-24T05:19:05;4.25;;;3.50;;
59074;SDS011;44860;53.020;6.738;2023-04-24T05:21:31;5.95;;;4.65;;
59074;SDS011;44860;53.020;6.738;2023-04-24T05:23:56;4.80;;;4.40;;
59074;SDS011;44860;53.020;6.738;2023-04-24T05:26:22;5.65;;;4.90;;
59074;SDS011;44860;53.020;6.738;2023-04-24T05:28:48;8.32;;;4.90;;
59074;SDS011;44860;53.020;6.738;2023-04-24T05:31:14;5.28;;;4.78;;
59074;SDS011;44860;53.020;6.738;2023-04-24T05:33:42;5.32;;;4.82;;
59074;SDS011;44860;53.020;6.738;2023-04-24T05:36:08;5.97;;;4.50;;
59074;SDS011;44860;53.020;6.738;2023-04-24T05:38:34;6.28;;;4.95;;
59074;SDS011;44860;53.020;6.738;2023-04-24T05:40:59;4.43;;;3.92;;
59074;SDS011;44860;53.020;6.738;2023-04-24T05:43:25;4.80;;;4.13;;
59074;SDS011;44860;53.020;6.738;2023-04-24T05:45:51;5.25;;;4.00;;
59074;SDS011;44860;53.020;6.738;2023-04-24T05:48:16;3.78;;;3.47;;
59074;SDS011;44860;53.020;6.738;2023-04-24T05:50:42;4.07;;;3.78;;
59074;SDS011;44860;53.020;6.738;2023-04-24T05:53:07;4.35;;;3.95;;
59074;SDS011;44860;53.020;6.738;2023-04-24T05:55:35;4.32;;;3.90;;
59074;SDS011;44860;53.020;6.738;2023-04-24T05:58:01;4.28;;;3.67;;
59074;SDS011;44860;53.020;6.738;2023-04-24T06:00:27;5.38;;;3.78;;
59074;SDS011;44860;53.020;6.738;2023-04-24T06:02:53;3.65;;;3.20;;
59074;SDS011;44860;53.020;6.738;2023-04-24T06:05:20;4.47;;;3.20;;
59074;SDS011;44860;53.020;6.738;2023-04-24T06:07:45;4.45;;;3.50;;
59074;SDS011;44860;53.020;6.738;2023-04-24T06:10:11;3.90;;;3.47;;
59074;SDS011;44860;53.020;6.738;2023-04-24T06:12:37;3.50;;;3.20;;
59074;SDS011;44860;53.020;6.738;2023-04-24T06:15:03;4.13;;;3.72;;
59074;SDS011;44860;53.020;6.738;2023-04-24T06:17:29;3.65;;;3.30;;
59074;SDS011;44860;53.020;6.738;2023-04-24T06:19:55;4.05;;;3.40;;
59074;SDS011;44860;53.020;6.738;2023-04-24T06:22:21;3.83;;;3.53;;
59074;SDS011;44860;53.020;6.738;2023-04-24T06:24:46;3.97;;;3.58;;
59074;SDS011;44860;53.020;6.738;2023-04-24T06:27:13;3.65;;;3.35;;
59074;SDS011;44860;53.020;6.738;2023-04-24T06:29:39;3.63;;;3.33;;
59074;SDS011;44860;53.020;6.738;2023-04-24T06:32:05;4.22;;;3.30;;
59074;SDS011;44860;53.020;6.738;2023-04-24T06:34:30;3.70;;;3.40;;
59074;SDS011;44860;53.020;6.738;2023-04-24T06:36:57;3.72;;;3.33;;
59074;SDS011;44860;53.020;6.738;2023-04-24T06:39:23;4.43;;;4.00;;
59074;SDS011;44860;53.020;6.738;2023-04-24T06:41:49;4.10;;;3.70;;
59074;SDS011;44860;53.020;6.738;2023-04-24T06:44:15;3.95;;;3.40;;
59074;SDS011;44860;53.020;6.738;2023-04-24T06:46:41;3.20;;;2.90;;
59074;SDS011;44860;53.020;6.738;2023-04-24T06:49:07;3.50;;;3.20;;
59074;SDS011;44860;53.020;6.738;2023-04-24T06:51:33;3.05;;;2.75;;
59074;SDS011;44860;53.020;6.738;2023-04-24T06:53:58;2.53;;;2.33;;
59074;SDS011;44860;53.020;6.738;2023-04-24T06:56:24;3.00;;;2.25;;
59074;SDS011;44860;53.020;6.738;2023-04-24T06:58:51;2.72;;;2.38;;
59074;SDS011;44860;53.020;6.738;2023-04-24T07:01:17;2.72;;;2.45;;
59074;SDS011;44860;53.020;6.738;2023-04-24T07:03:43;3.13;;;2.80;;
59074;SDS011;44860;53.020;6.738;2023-04-24T07:06:09;4.82;;;3.88;;
59074;SDS011;44860;53.020;6.738;2023-04-24T07:08:38;5.43;;;4.22;;
59074;SDS011;44860;53.020;6.738;2023-04-24T07:11:03;8.02;;;4.30;;
59074;SDS011;44860;53.020;6.738;2023-04-24T07:13:29;6.00;;;4.50;;
59074;SDS011;44860;53.020;6.738;2023-04-24T07:15:55;5.93;;;4.57;;
59074;SDS011;44860;53.020;6.738;2023-04-24T07:18:21;6.55;;;4.80;;
59074;SDS011;44860;53.020;6.738;2023-04-24T07:20:47;6.90;;;5.20;;
59074;SDS011;44860;53.020;6.738;2023-04-24T07:23:15;6.78;;;5.30;;
59074;SDS011;44860;53.020;6.738;2023-04-24T07:25:41;7.55;;;5.32;;
59074;SDS011;44860;53.020;6.738;2023-04-24T07:28:07;7.32;;;5.57;;
59074;SDS011;44860;53.020;6.738;2023-04-24T07:30:33;9.05;;;5.68;;
59074;SDS011;44860;53.020;6.738;2023-04-24T07:32:59;8.50;;;5.63;;
59074;SDS011;44860;53.020;6.738;2023-04-24T07:35:25;8.80;;;5.53;;
59074;SDS011;44860;53.020;6.738;2023-04-24T07:37:54;6.25;;;5.00;;
59074;SDS011;44860;53.020;6.738;2023-04-24T07:40:20;7.47;;;5.30;;
59074;SDS011;44860;53.020;6.738;2023-04-24T07:42:47;6.47;;;3.80;;
59074;SDS011;44860;53.020;6.738;2023-04-24T07:45:13;3.97;;;2.88;;
59074;SDS011;44860;53.020;6.738;2023-04-24T07:47:41;3.95;;;2.53;;
59074;SDS011;44860;53.020;6.738;2023-04-24T07:50:09;6.32;;;2.70;;
59074;SDS011;44860;53.020;6.738;2023-04-24T07:52:35;4.05;;;2.55;;
59074;SDS011;44860;53.020;6.738;2023-04-24T07:55:00;4.40;;;2.90;;
59074;SDS011;44860;53.020;6.738;2023-04-24T07:57:27;3.83;;;2.72;;
59074;SDS011;44860;53.020;6.738;2023-04-24T07:59:53;5.32;;;2.80;;
59074;SDS011;44860;53.020;6.738;2023-04-24T08:02:19;4.45;;;2.78;;
59074;SDS011;44860;53.020;6.738;2023-04-24T08:04:44;4.55;;;2.60;;
59074;SDS011;44860;53.020;6.738;2023-04-24T08:07:10;5.47;;;2.80;;
59074;SDS011;44860;53.020;6.738;2023-04-24T08:09:37;6.88;;;2.97;;
59074;SDS011;44860;53.020;6.738;2023-04-24T08:12:03;4.60;;;2.90;;
59074;SDS011;44860;53.020;6.738;2023-04-24T08:14:29;4.13;;;3.10;;
59074;SDS011;44860;53.020;6.738;2023-04-24T08:16:55;5.00;;;3.08;;
59074;SDS011;44860;53.020;6.738;2023-04-24T08:19:25;9.35;;;3.45;;
59074;SDS011;44860;53.020;6.738;2023-04-24T08:21:51;5.25;;;3.40;;
59074;SDS011;44860;53.020;6.738;2023-04-24T08:24:16;5.43;;;2.97;;
59074;SDS011;44860;53.020;6.738;2023-04-24T08:26:42;7.10;;;3.20;;
59074;SDS011;44860;53.020;6.738;2023-04-24T08:29:08;11.70;;;4.75;;
59074;SDS011;44860;53.020;6.738;2023-04-24T08:31:33;9.05;;;4.97;;
59074;SDS011;44860;53.020;6.738;2023-04-24T08:34:00;11.07;;;5.35;;
59074;SDS011;44860;53.020;6.738;2023-04-24T08:36:26;9.27;;;5.70;;
59074;SDS011;44860;53.020;6.738;2023-04-24T08:38:52;10.48;;;6.68;;
59074;SDS011;44860;53.020;6.738;2023-04-24T08:41:18;15.30;;;8.48;;
59074;SDS011;44860;53.020;6.738;2023-04-24T08:43:46;17.85;;;9.57;;
59074;SDS011;44860;53.020;6.738;2023-04-24T08:46:13;24.40;;;13.23;;
59074;SDS011;44860;53.020;6.738;2023-04-24T08:48:41;26.50;;;13.63;;
59074;SDS011;44860;53.020;6.738;2023-04-24T08:51:07;24.55;;;13.80;;
59074;SDS011;44860;53.020;6.738;2023-04-24T08:53:34;26.77;;;14.90;;
59074;SDS011;44860;53.020;6.738;2023-04-24T08:56:01;26.55;;;14.85;;
59074;SDS011;44860;53.020;6.738;2023-04-24T08:58:27;24.60;;;14.88;;
59074;SDS011;44860;53.020;6.738;2023-04-24T09:00:57;27.85;;;15.85;;
59074;SDS011;44860;53.020;6.738;2023-04-24T09:03:23;23.33;;;15.70;;
59074;SDS011;44860;53.020;6.738;2023-04-24T09:05:50;22.33;;;15.27;;
59074;SDS011;44860;53.020;6.738;2023-04-24T09:08:19;25.83;;;16.20;;
59074;SDS011;44860;53.020;6.738;2023-04-24T09:10:48;21.50;;;15.48;;
59074;SDS011;44860;53.020;6.738;2023-04-24T09:13:14;28.85;;;16.00;;
59074;SDS011;44860;53.020;6.738;2023-04-24T09:15:40;21.77;;;15.20;;
59074;SDS011;44860;53.020;6.738;2023-04-24T09:18:06;22.40;;;15.48;;
59074;SDS011;44860;53.020;6.738;2023-04-24T09:20:32;26.55;;;15.02;;
59074;SDS011;44860;53.020;6.738;2023-04-24T09:23:00;22.73;;;15.05;;
59074;SDS011;44860;53.020;6.738;2023-04-24T09:25:33;21.77;;;14.70;;
59074;SDS011;44860;53.020;6.738;2023-04-24T09:28:04;23.23;;;15.35;;
59074;SDS011;44860;53.020;6.738;2023-04-24T09:30:31;23.38;;;14.38;;
59074;SDS011;44860;53.020;6.738;2023-04-24T09:33:10;21.83;;;14.75;;
59074;SDS011;44860;53.020;6.738;2023-04-24T09:35:49;22.08;;;15.13;;
59074;SDS011;44860;53.020;6.738;2023-04-24T09:38:15;21.83;;;15.07;;
59074;SDS011;44860;53.020;6.738;2023-04-24T09:40:41;21.88;;;15.05;;
59074;SDS011;44860;53.020;6.738;2023-04-24T09:43:10;20.27;;;13.95;;
59074;SDS011;44860;53.020;6.738;2023-04-24T09:45:36;19.73;;;13.43;;
59074;SDS011;44860;53.020;6.738;2023-04-24T09:48:04;20.98;;;13.43;;
59074;SDS011;44860;53.020;6.738;2023-04-24T09:50:31;20.35;;;13.82;;
59074;SDS011;44860;53.020;6.738;2023-04-24T09:53:04;18.85;;;12.15;;
59074;SDS011;44860;53.020;6.738;2023-04-24T09:55:33;18.17;;;11.95;;
59074;SDS011;44860;53.020;6.738;2023-04-24T09:58:07;18.15;;;12.95;;
59074;SDS011;44860;53.020;6.738;2023-04-24T10:00:33;18.80;;;11.60;;
59074;SDS011;44860;53.020;6.738;2023-04-24T10:03:00;20.67;;;12.45;;
59074;SDS011;44860;53.020;6.738;2023-04-24T10:05:29;18.25;;;11.85;;
59074;SDS011;44860;53.020;6.738;2023-04-24T10:07:57;13.10;;;10.30;;
59074;SDS011;44860;53.020;6.738;2023-04-24T10:10:25;17.08;;;11.15;;
59074;SDS011;44860;53.020;6.738;2023-04-24T10:12:51;16.60;;;10.70;;
59074;SDS011;44860;53.020;6.738;2023-04-24T10:15:17;15.88;;;10.45;;
59074;SDS011;44860;53.020;6.738;2023-04-24T10:17:46;15.20;;;11.10;;
59074;SDS011;44860;53.020;6.738;2023-04-24T10:20:20;18.38;;;10.50;;
59074;SDS011;44860;53.020;6.738;2023-04-24T10:22:53;16.30;;;9.63;;
59074;SDS011;44860;53.020;6.738;2023-04-24T10:25:20;15.30;;;7.90;;
59074;SDS011;44860;53.020;6.738;2023-04-24T10:27:49;14.32;;;8.15;;
59074;SDS011;44860;53.020;6.738;2023-04-24T10:30:16;18.80;;;7.78;;
59074;SDS011;44860;53.020;6.738;2023-04-24T10:32:43;14.45;;;7.82;;
59074;SDS011;44860;53.020;6.738;2023-04-24T10:35:10;15.43;;;7.35;;
59074;SDS011;44860;53.020;6.738;2023-04-24T10:37:45;14.35;;;7.15;;
59074;SDS011;44860;53.020;6.738;2023-04-24T10:40:18;17.70;;;7.30;;
59074;SDS011;44860;53.020;6.738;2023-04-24T10:42:51;12.55;;;6.80;;
59074;SDS011;44860;53.020;6.738;2023-04-24T10:45:20;12.68;;;7.20;;
59074;SDS011;44860;53.020;6.738;2023-04-24T10:48:01;12.98;;;7.47;;
59074;SDS011;44860;53.020;6.738;2023-04-24T10:50:28;12.43;;;6.82;;
59074;SDS011;44860;53.020;6.738;2023-04-24T10:53:05;16.77;;;5.88;;
59074;SDS011;44860;53.020;6.738;2023-04-24T10:58:14;14.27;;;5.65;;
59074;SDS011;44860;53.020;6.738;2023-04-24T11:00:42;12.20;;;5.38;;
59074;SDS011;44860;53.020;6.738;2023-04-24T11:03:23;13.95;;;5.65;;
59074;SDS011;44860;53.020;6.738;2023-04-24T11:08:43;10.27;;;4.40;;
59074;SDS011;44860;53.020;6.738;2023-04-24T11:11:11;10.93;;;3.80;;
59074;SDS011;44860;53.020;6.738;2023-04-24T11:16:26;12.45;;;4.30;;
59074;SDS011;44860;53.020;6.738;2023-04-24T11:24:25;9.05;;;3.40;;
59074;SDS011;44860;53.020;6.738;2023-04-24T11:26:55;8.23;;;3.97;;
59074;SDS011;44860;53.020;6.738;2023-04-24T11:29:38;11.23;;;3.45;;
59074;SDS011;44860;53.020;6.738;2023-04-24T11:32:17;9.85;;;3.47;;
59074;SDS011;44860;53.020;6.738;2023-04-24T11:34:50;11.40;;;3.80;;
59074;SDS011;44860;53.020;6.738;2023-04-24T11:37:21;9.00;;;3.30;;
59074;SDS011;44860;53.020;6.738;2023-04-24T11:39:52;9.63;;;3.67;;
59074;SDS011;44860;53.020;6.738;2023-04-24T11:42:19;7.80;;;3.30;;
59074;SDS011;44860;53.020;6.738;2023-04-24T11:44:47;6.50;;;2.85;;
59074;SDS011;44860;53.020;6.738;2023-04-24T11:47:14;11.38;;;2.83;;
59074;SDS011;44860;53.020;6.738;2023-04-24T11:49:40;9.75;;;2.83;;
59074;SDS011;44860;53.020;6.738;2023-04-24T11:52:05;11.27;;;3.38;;
59074;SDS011;44860;53.020;6.738;2023-04-24T11:54:31;11.00;;;3.00;;
59074;SDS011;44860;53.020;6.738;2023-04-24T11:56:57;7.85;;;2.85;;
59074;SDS011;44860;53.020;6.738;2023-04-24T11:59:23;13.35;;;3.15;;
59074;SDS011;44860;53.020;6.738;2023-04-24T12:01:49;6.88;;;2.60;;
59074;SDS011;44860;53.020;6.738;2023-04-24T12:04:15;9.88;;;3.15;;
59074;SDS011;44860;53.020;6.738;2023-04-24T12:07:01;10.55;;;2.70;;
59074;SDS011;44860;53.020;6.738;2023-04-24T12:09:48;8.52;;;2.70;;
59074;SDS011;44860;53.020;6.738;2023-04-24T12:12:23;9.48;;;3.05;;
59074;SDS011;44860;53.020;6.738;2023-04-24T12:14:54;7.18;;;2.65;;
59074;SDS011;44860;53.020;6.738;2023-04-24T12:17:28;7.68;;;2.40;;
59074;SDS011;44860;53.020;6.738;2023-04-24T12:20:02;7.75;;;2.30;;
59074;SDS011;44860;53.020;6.738;2023-04-24T12:25:19;6.90;;;2.40;;
59074;SDS011;44860;53.020;6.738;2023-04-24T12:27:45;6.47;;;2.15;;
59074;SDS011;44860;53.020;6.738;2023-04-24T12:30:15;8.30;;;2.30;;
59074;SDS011;44860;53.020;6.738;2023-04-24T12:32:45;9.10;;;2.90;;
59074;SDS011;44860;53.020;6.738;2023-04-24T12:35:12;9.13;;;2.25;;
59074;SDS011;44860;53.020;6.738;2023-04-24T12:37:41;8.30;;;2.53;;
59074;SDS011;44860;53.020;6.738;2023-04-24T12:40:08;8.25;;;2.20;;
59074;SDS011;44860;53.020;6.738;2023-04-24T12:42:36;9.18;;;2.97;;
59074;SDS011;44860;53.020;6.738;2023-04-24T12:45:08;9.30;;;2.50;;
59074;SDS011;44860;53.020;6.738;2023-04-24T12:47:34;10.23;;;2.90;;
59074;SDS011;44860;53.020;6.738;2023-04-24T12:50:00;15.80;;;3.42;;
59074;SDS011;44860;53.020;6.738;2023-04-24T12:52:27;7.90;;;2.50;;
59074;SDS011;44860;53.020;6.738;2023-04-24T12:54:54;7.05;;;2.85;;
59074;SDS011;44860;53.020;6.738;2023-04-24T12:57:22;9.50;;;3.13;;
59074;SDS011;44860;53.020;6.738;2023-04-24T12:59:48;10.25;;;2.72;;
59074;SDS011;44860;53.020;6.738;2023-04-24T13:02:14;6.18;;;2.60;;
59074;SDS011;44860;53.020;6.738;2023-04-24T13:04:43;6.85;;;2.30;;
59074;SDS011;44860;53.020;6.738;2023-04-24T13:07:10;6.82;;;1.90;;
59074;SDS011;44860;53.020;6.738;2023-04-24T13:09:36;6.60;;;2.05;;
59074;SDS011;44860;53.020;6.738;2023-04-24T13:12:02;6.82;;;2.40;;
59074;SDS011;44860;53.020;6.738;2023-04-24T13:14:27;4.25;;;1.80;;
59074;SDS011;44860;53.020;6.738;2023-04-24T13:16:53;6.90;;;2.33;;
59074;SDS011;44860;53.020;6.738;2023-04-24T13:19:19;4.88;;;1.95;;
59074;SDS011;44860;53.020;6.738;2023-04-24T13:21:44;5.93;;;2.08;;
59074;SDS011;44860;53.020;6.738;2023-04-24T13:24:10;5.55;;;1.92;;
59074;SDS011;44860;53.020;6.738;2023-04-24T13:26:36;8.27;;;2.05;;
59074;SDS011;44860;53.020;6.738;2023-04-24T13:29:01;7.60;;;2.10;;
59074;SDS011;44860;53.020;6.738;2023-04-24T13:31:28;9.05;;;2.13;;
59074;SDS011;44860;53.020;6.738;2023-04-24T13:33:54;9.60;;;2.42;;
59074;SDS011;44860;53.020;6.738;2023-04-24T13:36:20;6.15;;;1.52;;
59074;SDS011;44860;53.020;6.738;2023-04-24T13:38:45;5.15;;;1.48;;
59074;SDS011;44860;53.020;6.738;2023-04-24T13:41:11;7.18;;;1.60;;
59074;SDS011;44860;53.020;6.738;2023-04-24T13:43:37;3.53;;;1.35;;
59074;SDS011;44860;53.020;6.738;2023-04-24T13:46:02;4.97;;;1.40;;
59074;SDS011;44860;53.020;6.738;2023-04-24T13:48:28;5.13;;;1.52;;
59074;SDS011;44860;53.020;6.738;2023-04-24T13:50:55;5.60;;;1.40;;
59074;SDS011;44860;53.020;6.738;2023-04-24T13:53:20;4.50;;;1.20;;
59074;SDS011;44860;53.020;6.738;2023-04-24T13:55:46;15.38;;;1.45;;
59074;SDS011;44860;53.020;6.738;2023-04-24T13:58:12;4.95;;;1.30;;
59074;SDS011;44860;53.020;6.738;2023-04-24T14:00:38;2.83;;;1.02;;
59074;SDS011;44860;53.020;6.738;2023-04-24T14:03:04;3.95;;;1.17;;
59074;SDS011;44860;53.020;6.738;2023-04-24T14:05:30;1.83;;;1.02;;
59074;SDS011;44860;53.020;6.738;2023-04-24T14:07:55;3.00;;;1.00;;
59074;SDS011;44860;53.020;6.738;2023-04-24T14:10:21;5.00;;;1.10;;
59074;SDS011;44860;53.020;6.738;2023-04-24T14:12:47;3.13;;;1.30;;
59074;SDS011;44860;53.020;6.738;2023-04-24T14:15:13;4.00;;;1.10;;
59074;SDS011;44860;53.020;6.738;2023-04-24T14:17:39;4.55;;;1.20;;
59074;SDS011;44860;53.020;6.738;2023-04-24T14:20:05;2.75;;;1.23;;
59074;SDS011;44860;53.020;6.738;2023-04-24T14:22:32;2.70;;;1.35;;
59074;SDS011;44860;53.020;6.738;2023-04-24T14:24:57;3.30;;;1.15;;
59074;SDS011;44860;53.020;6.738;2023-04-24T14:27:24;5.32;;;1.30;;
59074;SDS011;44860;53.020;6.738;2023-04-24T14:29:50;4.28;;;1.50;;
59074;SDS011;44860;53.020;6.738;2023-04-24T14:32:15;6.40;;;1.80;;
59074;SDS011;44860;53.020;6.738;2023-04-24T14:34:41;7.60;;;1.60;;
59074;SDS011;44860;53.020;6.738;2023-04-24T14:37:07;10.18;;;2.28;;
59074;SDS011;44860;53.020;6.738;2023-04-24T14:39:32;7.43;;;1.98;;
59074;SDS011;44860;53.020;6.738;2023-04-24T14:41:58;8.75;;;2.08;;
59074;SDS011;44860;53.020;6.738;2023-04-24T14:44:24;8.75;;;2.33;;
59074;SDS011;44860;53.020;6.738;2023-04-24T14:46:51;10.88;;;2.42;;
59074;SDS011;44860;53.020;6.738;2023-04-24T14:49:16;7.05;;;2.42;;
59074;SDS011;44860;53.020;6.738;2023-04-24T14:51:42;11.23;;;2.85;;
59074;SDS011;44860;53.020;6.738;2023-04-24T14:54:08;11.45;;;2.60;;
59074;SDS011;44860;53.020;6.738;2023-04-24T14:56:34;14.20;;;2.95;;